Terminal Aerodrome Forecast
Issued by NWS

Home | Current Version | Previous Version | Text Only | Print | Product List | Glossary On
Versions: 1 2 3 4 5 6 7 8 9 10 11 12 13 14 15 16 17 18 19 20 21 22
369
FTUS43 KDLH 200526
TAFHIB
TAF
KHIB 200526Z 2006/2106 VRB03KT 6SM BR SCT250
      TEMPO 2006/2009 1SM BR
     FM200900 00000KT 3SM BR FEW004
      TEMPO 2009/2012 1/2SM FG OVC004
     FM201300 25005KT P6SM SCT025 BKN045
     FM201600 31008KT P6SM BKN060=

USA.gov is the U.S. government's official web portal to all federal, state and local government web resources and services.